createdAt,value
2018-01-21T00:01:56.525Z,3.50
2018-01-21T00:04:23.982Z,2.70
2018-01-21T00:06:51.459Z,3.00
2018-01-21T00:09:18.920Z,4.13
2018-01-21T00:11:46.390Z,4.20
2018-01-21T00:14:14.638Z,4.30
2018-01-21T00:16:42.098Z,4.60
2018-01-21T00:19:09.565Z,4.73
2018-01-21T00:21:37.031Z,5.20
2018-01-21T00:24:05.258Z,3.73
2018-01-21T00:26:32.714Z,4.00
2018-01-21T00:29:00.193Z,3.30
2018-01-21T00:31:27.641Z,3.90
2018-01-21T00:33:55.107Z,3.00
2018-01-21T00:36:22.574Z,2.67
2018-01-21T00:38:50.022Z,2.93
2018-01-21T00:41:17.478Z,2.87
2018-01-21T00:43:44.951Z,2.87
2018-01-21T00:46:12.405Z,2.97
2018-01-21T00:48:39.864Z,3.07
2018-01-21T00:51:07.347Z,2.57
2018-01-21T00:53:34.836Z,2.60
2018-01-21T00:56:02.285Z,2.60
2018-01-21T00:58:29.755Z,3.30
2018-01-21T01:00:57.241Z,2.90
2018-01-21T01:03:24.698Z,2.70
2018-01-21T01:05:52.162Z,2.20
2018-01-21T01:08:19.625Z,2.33
2018-01-21T01:10:47.858Z,2.40
2018-01-21T01:13:15.327Z,2.30
2018-01-21T01:15:42.832Z,2.07
2018-01-21T01:18:11.054Z,2.43
2018-01-21T01:20:38.514Z,2.10
2018-01-21T01:23:05.978Z,2.70
2018-01-21T01:25:33.446Z,2.53
2018-01-21T01:28:00.905Z,2.10
2018-01-21T01:30:28.373Z,1.90
2018-01-21T01:32:56.615Z,2.10
2018-01-21T01:35:24.074Z,1.83
2018-01-21T01:37:51.546Z,1.87
2018-01-21T01:40:19.006Z,2.00
2018-01-21T01:42:46.461Z,2.00
2018-01-21T01:45:13.927Z,2.83
2018-01-21T01:47:41.382Z,2.90
2018-01-21T01:50:08.843Z,3.33
2018-01-21T01:52:36.310Z,2.47
2018-01-21T01:55:04.530Z,2.70
2018-01-21T01:57:31.982Z,2.83
2018-01-21T01:59:59.471Z,2.90
2018-01-21T02:02:26.923Z,2.27
2018-01-21T02:04:54.378Z,2.33
2018-01-21T02:07:21.873Z,1.90
2018-01-21T02:09:50.094Z,1.80
2018-01-21T02:12:17.537Z,1.77
2018-01-21T02:14:44.996Z,1.53
2018-01-21T02:17:12.444Z,2.00
2018-01-21T02:19:39.908Z,0.90
2018-01-21T02:22:07.369Z,1.73
2018-01-21T02:24:34.821Z,1.20
2018-01-21T02:27:02.269Z,1.07
2018-01-21T02:29:29.737Z,0.90
2018-01-21T02:31:57.185Z,1.43
2018-01-21T02:34:24.657Z,1.30
2018-01-21T02:36:52.131Z,1.30
2018-01-21T02:39:19.578Z,1.10
2018-01-21T02:41:47.039Z,0.87
2018-01-21T02:44:14.498Z,0.90
2018-01-21T02:46:41.950Z,1.17
2018-01-21T02:49:09.410Z,1.00
2018-01-21T02:51:36.909Z,1.07
2018-01-21T02:54:05.134Z,1.10
2018-01-21T02:56:32.586Z,1.07
2018-01-21T02:59:00.069Z,2.80
2018-01-21T03:01:27.517Z,1.97
2018-01-21T03:03:54.978Z,1.00
2018-01-21T03:06:22.443Z,0.80
2018-01-21T03:08:49.902Z,0.87
2018-01-21T03:11:17.358Z,0.90
2018-01-21T03:13:44.826Z,1.13
2018-01-21T03:16:13.109Z,1.00
2018-01-21T03:18:41.326Z,1.53
2018-01-21T03:21:09.699Z,0.80
2018-01-21T03:23:37.154Z,1.23
2018-01-21T03:26:04.618Z,0.93
2018-01-21T03:28:32.089Z,1.37
2018-01-21T03:30:59.560Z,1.70
2018-01-21T03:33:27.022Z,0.90
2018-01-21T03:35:54.500Z,1.00
2018-01-21T03:38:22.726Z,1.03
2018-01-21T03:40:50.953Z,1.00
2018-01-21T03:43:19.169Z,0.90
2018-01-21T03:45:46.642Z,1.10
2018-01-21T03:48:14.123Z,1.17
2018-01-21T03:50:41.573Z,1.97
2018-01-21T03:53:09.034Z,0.90
2018-01-21T03:55:36.493Z,1.30
2018-01-21T03:58:03.949Z,1.10
2018-01-21T04:00:31.402Z,1.20
2018-01-21T04:02:58.863Z,0.97
2018-01-21T04:05:26.315Z,1.37
2018-01-21T04:07:53.780Z,1.10
2018-01-21T04:10:21.239Z,1.50
2018-01-21T04:12:49.461Z,1.60
2018-01-21T04:15:16.943Z,1.10
2018-01-21T04:17:44.402Z,1.73
2018-01-21T04:20:11.856Z,0.90
2018-01-21T04:22:39.314Z,1.10
2018-01-21T04:25:06.782Z,1.20
2018-01-21T04:27:34.243Z,1.60
2018-01-21T04:30:01.710Z,1.30
2018-01-21T04:32:29.941Z,1.23
2018-01-21T04:34:57.403Z,1.20
2018-01-21T04:37:24.913Z,0.93
2018-01-21T04:39:52.338Z,0.77
2018-01-21T04:42:19.793Z,1.20
2018-01-21T04:44:47.256Z,0.97
2018-01-21T04:47:14.714Z,0.80
2018-01-21T04:49:42.166Z,1.50
2018-01-21T04:52:09.621Z,0.80
2018-01-21T04:54:37.091Z,0.63
2018-01-21T04:57:04.546Z,0.80
2018-01-21T04:59:32.025Z,0.70
2018-01-21T05:01:59.502Z,1.97
2018-01-21T05:04:26.962Z,1.53
2018-01-21T05:06:54.410Z,1.20
2018-01-21T05:09:21.882Z,0.57
2018-01-21T05:11:49.335Z,0.67
2018-01-21T05:14:16.814Z,0.60
2018-01-21T05:16:44.285Z,0.70
2018-01-21T05:19:11.746Z,0.80
2018-01-21T05:21:39.201Z,0.67
2018-01-21T05:24:06.679Z,0.73
2018-01-21T05:26:34.899Z,1.00
2018-01-21T05:29:02.358Z,0.90
2018-01-21T05:31:29.826Z,0.93
2018-01-21T05:33:57.282Z,0.97
2018-01-21T05:36:24.738Z,0.87
2018-01-21T05:38:52.253Z,0.83
2018-01-21T05:41:19.669Z,0.73
2018-01-21T05:43:47.128Z,1.00
2018-01-21T05:46:14.594Z,1.27
2018-01-21T05:48:42.047Z,0.83
2018-01-21T05:51:09.502Z,0.80
2018-01-21T05:53:36.977Z,0.70
2018-01-21T05:56:05.189Z,0.80
2018-01-21T05:58:32.664Z,0.70
2018-01-21T06:01:00.151Z,0.93
2018-01-21T06:03:27.604Z,1.23
2018-01-21T06:05:55.079Z,1.40
2018-01-21T06:08:23.307Z,1.33
2018-01-21T06:10:50.770Z,1.13
2018-01-21T06:13:18.234Z,0.80
2018-01-21T06:15:45.713Z,1.10
2018-01-21T06:18:13.172Z,1.00
2018-01-21T06:20:40.626Z,0.60
2018-01-21T06:23:08.094Z,1.00
2018-01-21T06:25:36.314Z,0.70
2018-01-21T06:28:03.789Z,0.80
2018-01-21T06:30:31.250Z,0.90
2018-01-21T06:32:58.719Z,1.60
2018-01-21T06:35:26.162Z,0.90
2018-01-21T06:37:53.635Z,0.83
2018-01-21T06:40:21.088Z,0.80
2018-01-21T06:42:48.550Z,0.93
2018-01-21T06:45:16.031Z,1.33
2018-01-21T06:47:43.502Z,1.27
2018-01-21T06:50:10.952Z,1.17
2018-01-21T06:52:39.190Z,1.30
2018-01-21T06:55:06.660Z,1.60
2018-01-21T06:57:34.105Z,1.37
2018-01-21T07:00:01.570Z,1.23
2018-01-21T07:02:29.034Z,1.60
2018-01-21T07:04:56.478Z,2.10
2018-01-21T07:07:23.951Z,1.23
2018-01-21T07:09:52.166Z,1.20
2018-01-21T07:12:19.622Z,2.33
2018-01-21T07:14:47.081Z,1.77
2018-01-21T07:17:14.581Z,1.17
2018-01-21T07:19:42.047Z,1.67
2018-01-21T07:22:10.283Z,1.47
2018-01-21T07:24:37.759Z,1.57
2018-01-21T07:27:05.223Z,2.53
2018-01-21T07:29:32.695Z,1.90
2018-01-21T07:32:00.928Z,1.70
2018-01-21T07:34:29.154Z,1.90
2018-01-21T07:36:57.377Z,1.90
2018-01-21T07:39:25.027Z,2.40
2018-01-21T07:41:52.478Z,3.70
2018-01-21T07:44:19.934Z,4.23
2018-01-21T07:46:47.414Z,5.47
2018-01-21T07:49:14.876Z,4.70
2018-01-21T07:51:43.094Z,3.33
2018-01-21T07:54:11.318Z,3.20
2018-01-21T07:56:38.783Z,1.70
2018-01-21T07:59:06.237Z,2.10
2018-01-21T08:04:07.765Z,1.57
2018-01-21T08:06:35.262Z,1.57
2018-01-21T08:09:03.222Z,2.30
2018-01-21T08:11:30.945Z,2.87
2018-01-21T08:13:58.426Z,2.23
2018-01-21T08:16:25.996Z,3.23
2018-01-21T08:18:53.450Z,2.30
2018-01-21T08:21:20.954Z,2.57
2018-01-21T08:23:48.413Z,2.40
2018-01-21T08:26:16.670Z,3.10
2018-01-21T08:28:44.258Z,2.70
2018-01-21T08:31:12.526Z,2.77
2018-01-21T08:33:39.997Z,2.90
2018-01-21T08:36:13.910Z,2.30
2018-01-21T08:38:47.115Z,2.90
2018-01-21T08:41:20.375Z,2.30
2018-01-21T08:43:48.592Z,2.20
2018-01-21T08:46:16.141Z,2.40
2018-01-21T08:48:43.607Z,2.13
2018-01-21T08:51:11.063Z,2.73
2018-01-21T08:53:38.523Z,3.10
2018-01-21T08:56:05.991Z,7.57
2018-01-21T08:58:33.458Z,3.80
2018-01-21T09:01:00.918Z,2.23
2018-01-21T09:03:28.401Z,2.40
2018-01-21T09:05:56.618Z,1.93
2018-01-21T09:08:24.075Z,1.90
2018-01-21T09:10:51.538Z,2.00
2018-01-21T09:13:18.998Z,1.43
2018-01-21T09:15:46.446Z,2.17
2018-01-21T09:18:13.943Z,2.37
2018-01-21T09:20:41.409Z,1.80
2018-01-21T09:23:08.858Z,1.80
2018-01-21T09:25:36.323Z,2.17
2018-01-21T09:28:03.770Z,1.73
2018-01-21T09:30:31.234Z,1.40
2018-01-21T09:32:58.718Z,1.37
2018-01-21T09:35:26.207Z,2.10
2018-01-21T09:37:53.662Z,2.63
2018-01-21T09:40:21.121Z,2.10
2018-01-21T09:42:48.582Z,3.33
2018-01-21T09:45:16.050Z,1.33
2018-01-21T09:47:43.538Z,1.87
2018-01-21T09:50:11.778Z,1.60
2018-01-21T09:52:39.244Z,1.77
2018-01-21T09:55:07.544Z,1.73
2018-01-21T09:57:35.006Z,2.27
2018-01-21T10:00:03.226Z,2.30
2018-01-21T10:02:30.674Z,1.60
2018-01-21T10:04:58.137Z,1.83
2018-01-21T10:07:25.677Z,2.00
2018-01-21T10:09:53.131Z,2.40
2018-01-21T10:12:21.355Z,2.27
2018-01-21T10:14:48.806Z,1.57
2018-01-21T10:17:16.258Z,2.20
2018-01-21T10:19:43.718Z,1.43
2018-01-21T10:22:11.187Z,2.70
2018-01-21T10:24:39.511Z,2.20
2018-01-21T10:27:06.983Z,2.50
2018-01-21T10:29:34.443Z,3.33
2018-01-21T10:32:01.895Z,1.60
2018-01-21T10:34:29.358Z,1.60
2018-01-21T10:36:56.806Z,1.60
2018-01-21T10:39:24.256Z,1.93
2018-01-21T10:41:51.726Z,1.87
2018-01-21T10:44:19.170Z,1.63
2018-01-21T10:46:46.634Z,1.40
2018-01-21T10:49:14.113Z,1.73
2018-01-21T10:51:41.570Z,2.47
2018-01-21T10:54:09.025Z,1.63
2018-01-21T10:56:36.515Z,1.80
2018-01-21T10:59:03.958Z,1.53
2018-01-21T11:01:31.413Z,1.20
2018-01-21T11:03:58.892Z,1.60
2018-01-21T11:06:26.349Z,1.77
2018-01-21T11:08:53.814Z,1.50
2018-01-21T11:11:22.047Z,2.57
2018-01-21T11:13:49.512Z,1.97
2018-01-21T11:16:16.977Z,1.13
2018-01-21T11:18:45.195Z,0.97
2018-01-21T11:21:12.638Z,1.60
2018-01-21T11:23:40.883Z,1.10
2018-01-21T11:26:08.334Z,1.20
2018-01-21T11:28:35.791Z,1.13
2018-01-21T11:31:03.255Z,2.90
2018-01-21T11:33:30.702Z,1.57
2018-01-21T11:35:58.163Z,2.10
2018-01-21T11:38:25.662Z,1.33
2018-01-21T11:40:53.120Z,1.53
2018-01-21T11:43:20.609Z,1.50
2018-01-21T11:45:48.071Z,1.53
2018-01-21T11:48:15.531Z,1.17
2018-01-21T11:50:42.989Z,1.30
2018-01-21T11:53:10.474Z,1.60
2018-01-21T11:55:37.918Z,1.47
2018-01-21T11:58:05.398Z,1.63
2018-01-21T12:00:32.856Z,1.30
2018-01-21T12:03:01.066Z,1.17
2018-01-21T12:05:28.529Z,1.23
2018-01-21T12:07:55.983Z,1.30
2018-01-21T12:10:23.430Z,1.43
2018-01-21T12:12:50.886Z,1.10
2018-01-21T12:15:18.355Z,1.50
2018-01-21T12:17:45.810Z,1.13
2018-01-21T12:20:13.264Z,1.37
2018-01-21T12:22:40.816Z,1.00
2018-01-21T12:25:08.259Z,1.40
2018-01-21T12:27:35.706Z,0.90
2018-01-21T12:30:03.930Z,0.80
2018-01-21T12:32:31.389Z,1.10
2018-01-21T12:34:58.844Z,1.17
2018-01-21T12:37:26.327Z,1.43
2018-01-21T12:39:53.807Z,0.87
2018-01-21T12:42:22.025Z,1.00
2018-01-21T12:44:49.486Z,1.57
2018-01-21T12:47:16.943Z,1.00
2018-01-21T12:49:44.402Z,1.00
2018-01-21T12:52:11.861Z,1.20
2018-01-21T12:54:39.321Z,1.10
2018-01-21T12:57:06.775Z,2.40
2018-01-21T12:59:34.252Z,1.90
2018-01-21T13:02:01.702Z,2.07
2018-01-21T13:04:29.159Z,2.30
2018-01-21T13:06:56.627Z,2.03
2018-01-21T13:09:24.088Z,2.33
2018-01-21T13:11:52.307Z,1.50
2018-01-21T13:14:19.797Z,1.70
2018-01-21T13:16:47.261Z,1.87
2018-01-21T13:19:14.710Z,1.07
2018-01-21T13:21:42.171Z,0.80
2018-01-21T13:24:09.627Z,0.93
2018-01-21T13:26:37.131Z,0.97
2018-01-21T13:29:04.599Z,0.90
2018-01-21T13:31:32.064Z,0.90
2018-01-21T13:33:59.550Z,1.40
2018-01-21T13:36:27.006Z,1.70
2018-01-21T13:38:54.510Z,1.10
2018-01-21T13:41:21.937Z,1.20
2018-01-21T13:43:49.396Z,1.30
2018-01-21T13:46:16.847Z,0.87
2018-01-21T13:48:45.091Z,0.87
2018-01-21T13:51:12.547Z,1.50
2018-01-21T13:53:40.785Z,1.30
2018-01-21T13:56:08.251Z,1.60
2018-01-21T13:58:35.705Z,1.07
2018-01-21T14:01:03.179Z,1.70
2018-01-21T14:03:30.679Z,1.10
2018-01-21T14:05:58.118Z,1.40
2018-01-21T14:08:25.576Z,2.27
2018-01-21T14:10:53.042Z,1.20
2018-01-21T14:13:20.515Z,1.60
2018-01-21T14:15:47.967Z,1.37
2018-01-21T14:18:15.426Z,1.40
2018-01-21T14:20:43.658Z,1.60
2018-01-21T14:23:11.106Z,1.63
2018-01-21T14:25:38.590Z,1.77
2018-01-21T14:28:06.804Z,1.67
2018-01-21T14:30:35.023Z,1.30
2018-01-21T14:33:02.489Z,1.80
2018-01-21T14:35:29.942Z,2.10
2018-01-21T14:37:57.416Z,2.27
2018-01-21T14:40:24.903Z,1.77
2018-01-21T14:42:53.119Z,1.90
2018-01-21T14:45:25.119Z,1.73
2018-01-21T14:47:53.982Z,1.63
2018-01-21T14:50:21.838Z,1.40
2018-01-21T14:52:49.907Z,1.57
2018-01-21T14:55:17.949Z,2.00
2018-01-21T14:57:46.086Z,2.47
2018-01-21T15:00:13.928Z,3.83
2018-01-21T15:02:42.432Z,2.27
2018-01-21T15:05:11.219Z,2.30
2018-01-21T15:07:39.815Z,2.20
2018-01-21T15:10:08.398Z,3.10
2018-01-21T15:12:36.914Z,1.90
2018-01-21T15:15:04.769Z,2.93
2018-01-21T15:17:32.542Z,2.17
2018-01-21T15:20:00.018Z,3.03
2018-01-21T15:22:27.527Z,2.93
2018-01-21T15:24:57.342Z,2.47
2018-01-21T15:27:25.572Z,2.97
2018-01-21T15:29:53.029Z,2.53
2018-01-21T15:32:20.475Z,2.87
2018-01-21T15:34:47.939Z,3.13
2018-01-21T15:37:15.425Z,2.90
2018-01-21T15:39:42.879Z,2.57
2018-01-21T15:42:10.347Z,3.47
2018-01-21T15:44:37.867Z,4.00
2018-01-21T15:47:05.319Z,3.60
2018-01-21T15:49:32.791Z,3.80
2018-01-21T15:52:00.261Z,3.70
2018-01-21T15:54:27.734Z,3.93
2018-01-21T15:56:55.959Z,3.20
2018-01-21T15:59:23.434Z,6.33
2018-01-21T16:01:50.906Z,4.63
2018-01-21T16:04:18.364Z,5.07
2018-01-21T16:06:45.846Z,3.80
2018-01-21T16:09:14.063Z,4.30
2018-01-21T16:11:41.519Z,3.87
2018-01-21T16:14:08.990Z,3.90
2018-01-21T16:16:36.441Z,4.40
2018-01-21T16:19:03.894Z,4.23
2018-01-21T16:21:31.425Z,4.20
2018-01-21T16:23:59.078Z,4.47
2018-01-21T16:26:26.584Z,4.17
2018-01-21T16:28:54.067Z,5.03
2018-01-21T16:31:22.298Z,5.80
2018-01-21T16:33:49.750Z,6.70
2018-01-21T16:36:33.051Z,6.00
2018-01-21T16:39:01.358Z,7.03
2018-01-21T16:41:28.858Z,38.47
2018-01-21T16:43:56.339Z,29.90
2018-01-21T16:46:24.582Z,58.03
2018-01-21T16:48:53.026Z,29.93
2018-01-21T16:51:20.827Z,48.00
2018-01-21T16:53:48.281Z,14.90
2018-01-21T16:56:15.786Z,12.00
2018-01-21T16:58:43.238Z,9.50
2018-01-21T17:01:10.694Z,10.07
2018-01-21T17:03:38.197Z,11.40
2018-01-21T17:06:05.702Z,7.60
2018-01-21T17:08:33.126Z,7.20
2018-01-21T17:11:00.633Z,9.13
2018-01-21T17:13:28.077Z,7.30
2018-01-21T17:15:55.554Z,6.70
2018-01-21T17:18:23.015Z,8.30
2018-01-21T17:20:50.483Z,12.67
2018-01-21T17:23:17.951Z,19.30
2018-01-21T17:25:45.438Z,10.50
2018-01-21T17:28:13.671Z,9.10
2018-01-21T17:30:41.139Z,9.20
2018-01-21T17:33:08.595Z,9.47
2018-01-21T17:35:36.056Z,8.73
2018-01-21T17:38:03.539Z,9.67
2018-01-21T17:40:30.993Z,10.30
2018-01-21T17:42:58.447Z,11.80
2018-01-21T17:45:25.937Z,12.03
2018-01-21T17:47:53.395Z,13.30
2018-01-21T17:50:20.859Z,12.13
2018-01-21T17:52:48.326Z,13.63
2018-01-21T17:55:15.778Z,12.70
2018-01-21T17:57:43.239Z,13.40
2018-01-21T18:00:10.728Z,11.47
2018-01-21T18:02:38.214Z,11.40
2018-01-21T18:05:05.670Z,12.23
2018-01-21T18:07:33.935Z,11.40
2018-01-21T18:10:01.393Z,12.60
2018-01-21T18:12:28.855Z,13.87
2018-01-21T18:14:57.095Z,12.97
2018-01-21T18:17:24.564Z,14.30
2018-01-21T18:19:52.025Z,14.90
2018-01-21T18:22:19.500Z,16.63
2018-01-21T18:24:47.718Z,13.53
2018-01-21T18:27:15.174Z,14.07
2018-01-21T18:29:42.647Z,13.40
2018-01-21T18:32:10.106Z,13.63
2018-01-21T18:37:12.294Z,15.27
2018-01-21T18:39:39.753Z,15.40
2018-01-21T18:42:07.227Z,17.20
2018-01-21T18:44:34.711Z,14.90
2018-01-21T18:47:02.933Z,16.40
2018-01-21T18:49:30.463Z,18.87
2018-01-21T18:51:57.938Z,17.93
2018-01-21T18:54:25.417Z,16.90
2018-01-21T18:56:52.899Z,17.93
2018-01-21T18:59:20.366Z,17.13
2018-01-21T19:01:48.593Z,18.03
2018-01-21T19:04:16.075Z,15.60
2018-01-21T19:06:43.530Z,16.23
2018-01-21T19:09:11.001Z,17.10
2018-01-21T19:11:38.507Z,18.57
2018-01-21T19:14:05.987Z,16.60
2018-01-21T19:16:33.450Z,16.30
2018-01-21T19:19:00.975Z,19.80
2018-01-21T19:21:28.488Z,19.23
2018-01-21T19:23:55.999Z,23.23
2018-01-21T19:26:23.481Z,24.10
2018-01-21T19:28:51.005Z,19.73
2018-01-21T19:31:18.534Z,22.17
2018-01-21T19:33:46.822Z,22.90
2018-01-21T19:36:14.428Z,21.60
2018-01-21T19:38:41.859Z,23.37
2018-01-21T19:41:24.279Z,25.10
2018-01-21T19:43:51.811Z,23.30
2018-01-21T19:46:20.083Z,21.97
2018-01-21T19:48:47.707Z,24.50
2018-01-21T19:51:15.212Z,23.60
2018-01-21T19:53:42.700Z,24.17
2018-01-21T19:56:11.719Z,24.27
2018-01-21T19:58:39.188Z,22.20
2018-01-21T20:01:07.440Z,21.97
2018-01-21T20:03:35.704Z,22.63
2018-01-21T20:06:03.223Z,19.80
2018-01-21T20:08:30.777Z,20.30
2018-01-21T20:10:58.278Z,20.20
2018-01-21T20:13:25.735Z,18.90
2018-01-21T20:15:53.230Z,16.20
2018-01-21T20:18:21.462Z,16.13
2018-01-21T20:20:49.003Z,16.87
2018-01-21T20:23:16.506Z,15.00
2018-01-21T20:25:44.760Z,15.47
2018-01-21T20:28:13.126Z,15.80
2018-01-21T20:30:40.715Z,16.00
2018-01-21T20:33:08.207Z,12.80
2018-01-21T20:35:35.699Z,12.23
2018-01-21T20:38:03.220Z,12.20
2018-01-21T20:40:30.694Z,11.73
2018-01-21T20:42:59.735Z,13.10
2018-01-21T20:45:28.299Z,12.93
2018-01-21T20:47:59.722Z,11.57
2018-01-21T20:50:28.312Z,10.77
2018-01-21T20:52:57.269Z,12.63
2018-01-21T20:55:26.967Z,11.73
2018-01-21T20:57:56.802Z,12.23
2018-01-21T21:00:27.031Z,13.07
2018-01-21T21:02:55.407Z,13.50
2018-01-21T21:05:26.270Z,14.77
2018-01-21T21:07:54.171Z,12.90
2018-01-21T21:10:22.795Z,15.23
2018-01-21T21:12:53.077Z,13.60
2018-01-21T21:15:22.104Z,14.33
2018-01-21T21:17:53.773Z,12.70
2018-01-21T21:20:21.465Z,12.47
2018-01-21T21:22:49.746Z,12.13
2018-01-21T21:25:17.356Z,12.20
2018-01-21T21:27:44.874Z,12.13
2018-01-21T21:30:12.886Z,11.90
2018-01-21T21:32:40.374Z,11.13
2018-01-21T21:35:08.416Z,11.83
2018-01-21T21:37:35.962Z,10.57
2018-01-21T21:40:03.463Z,10.80
2018-01-21T21:42:31.101Z,9.77
2018-01-21T21:44:58.703Z,9.70
2018-01-21T21:47:26.942Z,7.80
2018-01-21T21:49:54.470Z,8.07
2018-01-21T21:52:22.750Z,8.10
2018-01-21T21:54:50.263Z,8.00
2018-01-21T21:57:17.790Z,9.70
2018-01-21T21:59:45.274Z,9.43
2018-01-21T22:02:12.789Z,9.23
2018-01-21T22:04:40.309Z,9.67
2018-01-21T22:07:07.787Z,10.93
2018-01-21T22:09:36.024Z,10.30
2018-01-21T22:12:03.578Z,11.10
2018-01-21T22:14:31.074Z,11.63
2018-01-21T22:16:59.436Z,10.17
2018-01-21T22:19:27.734Z,10.73
2018-01-21T22:21:56.055Z,10.97
2018-01-21T22:24:23.578Z,10.93
2018-01-21T22:26:51.058Z,9.47
2018-01-21T22:29:18.635Z,12.40
2018-01-21T22:31:46.130Z,11.80
2018-01-21T22:34:14.387Z,11.43
2018-01-21T22:36:41.874Z,11.90
2018-01-21T22:39:10.108Z,11.67
2018-01-21T22:41:37.642Z,12.90
2018-01-21T22:44:05.131Z,12.90
2018-01-21T22:46:32.623Z,12.93
2018-01-21T22:49:00.994Z,11.60
2018-01-21T22:51:29.266Z,13.60
2018-01-21T22:53:57.549Z,12.90
2018-01-21T22:56:25.833Z,13.70
2018-01-21T22:58:54.090Z,13.17
2018-01-21T23:01:22.342Z,13.10
2018-01-21T23:03:49.868Z,12.70
2018-01-21T23:06:17.339Z,12.37
2018-01-21T23:08:44.831Z,12.73
2018-01-21T23:11:13.093Z,13.20
2018-01-21T23:13:40.680Z,13.73
2018-01-21T23:16:08.219Z,13.70
2018-01-21T23:18:35.738Z,14.57
2018-01-21T23:21:03.247Z,12.13
2018-01-21T23:23:31.501Z,14.30
2018-01-21T23:25:59.024Z,12.70
2018-01-21T23:28:26.542Z,11.70
2018-01-21T23:30:53.983Z,12.80
2018-01-21T23:33:21.470Z,14.80
2018-01-21T23:35:48.943Z,13.83
2018-01-21T23:38:16.487Z,14.30
2018-01-21T23:40:44.021Z,14.27
2018-01-21T23:43:11.504Z,12.10
2018-01-21T23:45:39.806Z,12.17
2018-01-21T23:48:08.054Z,14.67
2018-01-21T23:50:35.534Z,13.77
2018-01-21T23:53:03.114Z,14.10
2018-01-21T23:55:30.621Z,15.53
2018-01-21T23:57:58.886Z,16.67
